Time;durP1;ratioP1;P1;durP2;ratioP2;P2;SDS_P1;SDS_P2;PMS_P1;PMS_P2;Temp;Humidity;BMP_temperature;BMP_pressure;BME280_temperature;BME280_humidity;BME280_pressure;Samples;Min_cycle;Max_cycle;Signal;HPM_P1;HPM_P2
2021/03/26 00:01:58;;;;;;;22.35;10.93;;;;;;;2.43;62.46;100201.59;5052141;28;20048;-37
2021/03/26 00:04:23;;;;;;;23.25;11.20;;;;;;;2.58;61.79;100194.09;5052330;28;20029;-37
2021/03/26 00:06:49;;;;;;;23.15;11.48;;;;;;;2.40;63.04;100195.78;5051984;28;20077;-36
2021/03/26 00:09:20;;;;;;;24.70;11.27;;;;;;;2.25;62.95;100187.50;5051754;28;20021;-51
2021/03/26 00:11:46;;;;;;;39.10;12.55;;;;;;;2.19;62.61;100188.88;5052037;28;20079;-51
2021/03/26 00:14:11;;;;;;;42.08;11.57;;;;;;;1.99;62.57;100195.91;5052212;28;20029;-48
2021/03/26 00:16:37;;;;;;;29.90;11.95;;;;;;;2.14;62.94;100199.78;5052123;28;20020;-47
2021/03/26 00:19:03;;;;;;;22.70;10.98;;;;;;;2.11;62.60;100200.09;5051960;28;20039;-47
2021/03/26 00:21:28;;;;;;;31.35;12.20;;;;;;;2.25;62.40;100195.38;5052121;28;20056;-49
2021/03/26 00:23:54;;;;;;;32.70;12.25;;;;;;;2.06;63.58;100201.47;5031804;28;20030;-49
2021/03/26 00:26:19;;;;;;;29.70;14.02;;;;;;;1.97;63.64;100191.78;5031502;28;20481;-48
2021/03/26 00:28:45;;;;;;;29.67;12.88;;;;;;;2.14;62.99;100202.41;5030695;28;20483;-49
2021/03/26 00:31:11;;;;;;;28.27;12.57;;;;;;;2.15;62.97;100209.34;5031343;28;20119;-52
2021/03/26 00:33:36;;;;;;;28.45;12.18;;;;;;;2.04;63.21;100209.47;5031697;28;20040;-48
2021/03/26 00:36:02;;;;;;;28.95;12.30;;;;;;;2.13;63.55;100205.16;5031473;28;20338;-48
2021/03/26 00:38:28;;;;;;;26.80;12.15;;;;;;;2.19;63.63;100215.16;5036280;28;20029;-48
2021/03/26 00:40:53;;;;;;;25.02;11.75;;;;;;;2.14;63.94;100215.53;5051711;28;20039;-48
2021/03/26 00:43:19;;;;;;;26.15;13.15;;;;;;;2.49;63.30;100215.97;5051350;28;20445;-50
2021/03/26 00:45:44;;;;;;;30.10;13.73;;;;;;;2.51;63.57;100222.75;5051693;28;20031;-48
2021/03/26 00:48:10;;;;;;;24.55;12.85;;;;;;;2.33;64.18;100214.72;5051267;28;20028;-48
2021/03/26 00:50:47;;;;;;;29.13;13.13;;;;;;;1.89;65.86;100213.47;5051058;28;20538;-47
2021/03/26 00:53:18;;;;;;;25.15;12.68;;;;;;;1.52;66.74;100209.66;5051414;28;20083;-48
2021/03/26 00:55:43;;;;;;;29.98;13.70;;;;;;;1.36;67.85;100223.25;5051219;28;20025;-47
2021/03/26 00:58:09;;;;;;;32.03;14.02;;;;;;;1.28;69.05;100222.25;5051280;28;20040;-47
2021/03/26 01:00:37;;;;;;;31.20;14.45;;;;;;;1.27;68.64;100221.41;5050970;28;20032;-47
2021/03/26 01:03:04;;;;;;;30.48;14.23;;;;;;;1.44;68.71;100225.22;5050994;28;20107;-51
2021/03/26 01:05:32;;;;;;;28.48;13.07;;;;;;;1.46;68.06;100223.28;5050882;28;20166;-46
2021/03/26 01:07:58;;;;;;;31.73;13.95;;;;;;;1.46;67.85;100215.41;5050819;28;20043;-49
2021/03/26 01:10:26;;;;;;;28.95;13.88;;;;;;;1.39;68.39;100224.78;5050674;28;20025;-48
2021/03/26 01:12:52;;;;;;;27.88;14.35;;;;;;;1.53;67.89;100218.34;5050859;28;20091;-47
2021/03/26 01:15:19;;;;;;;30.92;14.43;;;;;;;1.34;69.25;100219.94;5050847;28;20534;-47
2021/03/26 01:17:48;;;;;;;29.73;13.98;;;;;;;1.33;68.54;100215.66;5050764;28;20424;-48
2021/03/26 01:20:16;;;;;;;28.17;14.02;;;;;;;1.26;68.54;100221.56;5050991;28;20063;-47
2021/03/26 01:22:41;;;;;;;28.77;14.02;;;;;;;1.33;68.30;100220.06;5050785;28;20064;-48
2021/03/26 01:25:18;;;;;;;27.58;13.85;;;;;;;1.20;69.11;100216.81;5050497;28;20060;-48
2021/03/26 01:27:43;;;;;;;29.65;13.63;;;;;;;1.06;70.04;100223.25;5050651;28;20463;-47
2021/03/26 01:30:09;;;;;;;26.33;12.45;;;;;;;1.19;69.13;100221.25;5050795;28;20025;-50
2021/03/26 01:32:35;;;;;;;29.30;15.05;;;;;;;1.24;69.14;100223.47;5050239;28;20028;-47
2021/03/26 01:35:01;;;;;;;28.75;13.85;;;;;;;1.25;69.71;100228.59;5050547;28;20032;-49
2021/03/26 01:37:26;;;;;;;30.63;14.00;;;;;;;1.16;69.46;100221.50;5050809;28;20102;-48
2021/03/26 01:39:52;;;;;;;25.83;13.10;;;;;;;1.17;69.78;100223.16;5049577;28;20421;-48
2021/03/26 01:42:30;;;;;;;36.55;14.38;;;;;;;1.44;68.54;100225.22;5050650;28;20032;-49
2021/03/26 01:44:56;;;;;;;29.45;13.93;;;;;;;1.27;69.75;100225.84;5050516;28;20439;-50
2021/03/26 01:47:21;;;;;;;30.23;14.07;;;;;;;1.25;69.52;100220.72;5050666;28;20100;-52
2021/03/26 01:49:47;;;;;;;35.17;14.82;;;;;;;1.47;68.45;100222.31;5049262;28;20021;-48
2021/03/26 01:52:12;;;;;;;30.35;13.77;;;;;;;1.53;69.19;100221.78;5050284;28;20758;-46
2021/03/26 01:54:38;;;;;;;37.88;14.90;;;;;;;1.50;68.76;100231.72;5050256;28;20090;-49
2021/03/26 01:57:04;;;;;;;32.40;15.30;;;;;;;1.48;68.82;100231.84;5050411;28;20029;-51
2021/03/26 01:59:30;;;;;;;39.20;19.35;;;;;;;1.37;68.79;100229.31;5049938;28;20021;-48
2021/03/26 02:01:58;;;;;;;43.88;21.85;;;;;;;1.27;69.29;100221.41;5050238;28;20410;-48
2021/03/26 02:04:30;;;;;;;38.47;18.77;;;;;;;1.40;69.26;100229.06;5050129;28;20111;-48
2021/03/26 02:06:56;;;;;;;39.97;19.50;;;;;;;1.21;69.57;100221.94;5032659;28;20056;-48
2021/03/26 02:09:35;;;;;;;32.08;16.05;;;;;;;1.22;69.68;100230.63;5032172;28;20047;-48
2021/03/26 02:12:20;;;;;;;31.58;16.00;;;;;;;0.97;69.60;100233.56;5049033;28;20017;-48
2021/03/26 02:14:52;;;;;;;35.35;16.55;;;;;;;0.85;70.70;100233.75;5049686;28;20111;-48
2021/03/26 02:17:23;;;;;;;39.38;18.00;;;;;;;0.77;70.88;100232.59;5048896;28;20396;-47
2021/03/26 02:19:53;;;;;;;35.17;15.95;;;;;;;0.80;70.78;100241.16;5049945;28;20052;-49
2021/03/26 02:22:20;;;;;;;32.05;15.18;;;;;;;0.82;70.82;100236.63;5048692;28;20104;-49
2021/03/26 02:24:46;;;;;;;32.60;15.85;;;;;;;0.93;70.89;100242.66;5048606;28;20162;-50
2021/03/26 02:27:23;;;;;;;34.63;15.50;;;;;;;0.90;70.33;100242.06;5049976;28;20096;-48
2021/03/26 02:29:49;;;;;;;35.22;15.98;;;;;;;0.87;70.09;100243.13;5049702;28;20025;-51
2021/03/26 02:32:32;;;;;;;33.30;15.55;;;;;;;0.90;70.11;100231.59;5049720;28;20063;-49
2021/03/26 02:35:21;;;;;;;32.00;15.43;;;;;;;0.97;70.24;100237.94;5049815;28;20104;-52
2021/03/26 02:37:49;;;;;;;35.78;15.98;;;;;;;0.96;70.72;100241.56;5048668;28;20547;-51
2021/03/26 02:40:46;;;;;;;31.95;14.25;;;;;;;0.88;70.17;100249.22;5048287;28;20013;-48
2021/03/26 02:43:12;;;;;;;35.03;16.38;;;;;;;0.90;70.50;100255.19;5035608;28;20032;-50
2021/03/26 02:45:45;;;;;;;46.47;19.63;;;;;;;0.69;70.41;100249.94;5049773;28;20031;-50
2021/03/26 02:48:17;;;;;;;57.58;27.95;;;;;;;0.49;71.70;100251.56;5048358;28;20481;-49
2021/03/26 02:51:03;;;;;;;37.53;16.73;;;;;;;0.66;71.32;100255.41;5033190;28;20021;-52
2021/03/26 02:53:50;;;;;;;39.20;16.45;;;;;;;0.54;72.38;100257.25;5052326;28;20091;-52
2021/03/26 02:56:28;;;;;;;38.90;17.13;;;;;;;0.50;72.08;100261.91;5052194;28;20029;-50
2021/03/26 02:58:58;;;;;;;40.13;17.10;;;;;;;0.46;72.39;100267.50;5037045;28;20087;-51
2021/03/26 03:01:27;;;;;;;35.05;16.77;;;;;;;0.34;72.57;100274.59;5019404;28;20025;-49
2021/03/26 03:03:55;;;;;;;41.72;15.25;;;;;;;0.41;72.25;100269.69;5051942;28;20017;-50
2021/03/26 03:06:25;;;;;;;35.15;15.38;;;;;;;0.38;71.75;100270.75;5035544;28;20150;-48
2021/03/26 03:08:52;;;;;;;35.25;16.40;;;;;;;0.40;71.68;100261.03;5051851;28;20025;-50
2021/03/26 03:11:23;;;;;;;38.08;17.38;;;;;;;0.57;71.49;100276.19;5051966;28;20049;-49
2021/03/26 03:14:11;;;;;;;36.22;16.63;;;;;;;0.48;71.40;100273.50;5035626;28;20039;-49
2021/03/26 03:16:54;;;;;;;37.63;17.48;;;;;;;0.46;71.60;100267.50;5052021;28;20025;-49
2021/03/26 03:19:35;;;;;;;38.08;17.20;;;;;;;0.50;70.85;100268.97;5051850;28;20036;-48
2021/03/26 03:22:10;;;;;;;33.95;17.23;;;;;;;0.48;72.12;100278.72;5053229;28;20031;-48
2021/03/26 03:24:40;;;;;;;33.15;16.00;;;;;;;0.63;71.73;100276.63;5035738;28;20025;-51
2021/03/26 03:27:20;;;;;;;36.35;16.52;;;;;;;0.85;69.91;100280.94;5051906;28;20019;-48
2021/03/26 03:30:03;;;;;;;37.40;16.67;;;;;;;1.12;69.22;100278.63;5051527;28;20052;-48
2021/03/26 03:32:49;;;;;;;33.65;17.05;;;;;;;1.17;68.96;100284.28;5051536;28;20021;-49
2021/03/26 03:35:29;;;;;;;31.25;16.00;;;;;;;0.75;69.85;100276.44;5052898;28;20095;-52
2021/03/26 03:38:04;;;;;;;33.47;15.35;;;;;;;0.71;70.48;100276.84;5051723;28;20017;-48
2021/03/26 03:40:35;;;;;;;34.08;16.73;;;;;;;0.76;70.47;100272.88;5051152;28;20445;-49
2021/03/26 03:43:37;;;;;;;31.33;15.40;;;;;;;1.03;70.64;100284.63;5035592;28;20537;-47
2021/03/26 03:46:20;;;;;;;31.80;15.23;;;;;;;0.92;69.96;100285.53;5051513;28;20025;-49
2021/03/26 03:49:21;;;;;;;34.22;15.88;;;;;;;0.94;70.08;100283.59;5031236;28;20142;-47
2021/03/26 03:52:04;;;;;;;32.03;15.52;;;;;;;0.85;71.35;100292.22;4999048;28;20053;-48
2021/03/26 03:55:07;;;;;;;32.15;16.35;;;;;;;0.89;70.61;100298.88;5050747;28;20485;-49
2021/03/26 03:57:36;;;;;;;39.50;16.85;;;;;;;1.11;70.18;100302.34;5050756;28;20437;-49
2021/03/26 04:00:20;;;;;;;39.67;17.83;;;;;;;0.76;69.72;100288.59;5034997;28;20441;-50
2021/03/26 04:03:04;;;;;;;38.13;16.85;;;;;;;0.53;70.38;100313.22;5033556;28;20263;-50
2021/03/26 04:06:01;;;;;;;41.00;16.75;;;;;;;0.43;71.35;100302.66;5051935;28;20045;-49
2021/03/26 04:08:46;;;;;;;72.65;32.03;;;;;;;0.24;71.42;100308.53;5044236;28;20037;-51
2021/03/26 04:11:15;;;;;;;71.97;28.30;;;;;;;0.49;70.65;100311.81;5036318;28;20086;-48
2021/03/26 04:13:44;;;;;;;69.38;28.42;;;;;;;0.38;71.19;100299.56;5051902;28;20455;-50
2021/03/26 04:16:10;;;;;;;37.40;17.80;;;;;;;0.12;72.40;100307.75;5034139;28;20366;-47
2021/03/26 04:18:48;;;;;;;35.63;16.08;;;;;;;0.07;72.14;100309.06;5033912;28;20422;-48
2021/03/26 04:21:17;;;;;;;32.22;15.52;;;;;;;0.15;72.22;100311.88;5035697;28;20096;-50
2021/03/26 04:23:45;;;;;;;32.95;15.35;;;;;;;0.25;71.21;100306.75;5032489;28;20379;-49
2021/03/26 04:26:47;;;;;;;27.75;14.57;;;;;;;0.45;70.75;100313.00;5014406;28;20021;-47
2021/03/26 04:29:38;;;;;;;32.20;14.65;;;;;;;0.18;71.69;100322.13;5032207;28;20496;-49
2021/03/26 04:32:05;;;;;;;31.10;14.10;;;;;;;0.10;72.25;100322.75;5024674;28;20092;-50
2021/03/26 04:34:31;;;;;;;31.58;14.18;;;;;;;-0.06;71.94;100324.88;5031598;28;20025;-48
2021/03/26 04:37:31;;;;;;;33.97;15.85;;;;;;;2.01;80.62;100327.06;5031425;28;20441;-50
2021/03/26 04:40:07;;;;;;;51.05;22.98;;;;;;;3.74;73.19;100322.81;5046999;28;20068;-49
2021/03/26 04:42:41;;;;;;;35.47;16.88;;;;;;;3.94;66.73;100319.13;5035149;28;20037;-48
2021/03/26 04:45:11;;;;;;;29.98;13.00;;;;;;;4.40;64.89;100319.09;5051282;28;20472;-51
2021/03/26 04:47:48;;;;;;;26.27;13.30;;;;;;;5.53;59.48;100328.09;5033712;28;20490;-51
2021/03/26 04:50:20;;;;;;;25.75;12.32;;;;;;;6.53;58.25;100324.84;5033987;28;20025;-51
2021/03/26 04:52:52;;;;;;;22.27;12.60;;;;;;;6.54;56.16;100327.34;5033955;28;20031;-48
2021/03/26 04:55:26;;;;;;;22.48;11.52;;;;;;;6.03;54.55;100324.72;5033491;28;20036;-48
2021/03/26 04:57:55;;;;;;;24.33;12.25;;;;;;;6.10;55.30;100330.19;5049701;28;20029;-48
2021/03/26 05:01:08;;;;;;;20.08;10.50;;;;;;;6.40;57.60;100330.63;5049880;28;20028;-50
2021/03/26 05:03:35;;;;;;;28.30;12.50;;;;;;;5.63;54.33;100333.25;4989331;28;20034;-50
2021/03/26 05:06:28;;;;;;;25.13;12.45;;;;;;;5.69;52.48;100337.91;5043725;28;20131;-48
2021/03/26 05:08:55;;;;;;;28.75;12.88;;;;;;;4.23;55.83;100331.31;5043153;28;20045;-49
2021/03/26 05:11:21;;;;;;;49.70;17.70;;;;;;;3.43;60.06;100347.56;5032068;28;20080;-51
2021/03/26 05:13:48;;;;;;;42.08;17.60;;;;;;;4.57;58.60;100347.31;5048554;28;20032;-49
2021/03/26 05:16:27;;;;;;;41.17;16.23;;;;;;;3.63;59.90;100350.94;5048861;28;20033;-50
2021/03/26 05:19:27;;;;;;;30.77;15.02;;;;;;;3.42;60.01;100351.16;5032538;28;20480;-50
2021/03/26 05:21:59;;;;;;;35.05;15.43;;;;;;;3.42;61.31;100351.16;5006403;28;20043;-49
2021/03/26 05:24:32;;;;;;;39.33;14.68;;;;;;;3.85;59.41;100341.06;5049120;28;20032;-51
2021/03/26 05:26:58;;;;;;;36.63;16.02;;;;;;;4.29;57.13;100355.22;5032626;28;20174;-50
2021/03/26 05:29:24;;;;;;;32.83;15.23;;;;;;;4.17;56.30;100345.88;5048626;28;20094;-48
2021/03/26 05:32:20;;;;;;;32.35;15.98;;;;;;;4.38;56.32;100350.91;5048580;28;20032;-48
2021/03/26 05:35:29;;;;;;;35.65;15.93;;;;;;;4.37;57.03;100359.75;5049973;28;20071;-49
2021/03/26 05:38:17;;;;;;;36.80;17.08;;;;;;;4.74;55.36;100360.63;5043823;28;20045;-51
2021/03/26 05:40:49;;;;;;;33.53;15.68;;;;;;;5.02;54.85;100366.66;5038674;28;20024;-50
2021/03/26 05:43:52;;;;;;;28.20;16.33;;;;;;;5.21;54.73;100366.47;5033967;28;20440;-50
2021/03/26 05:46:39;;;;;;;30.15;14.90;;;;;;;5.28;54.08;100362.25;5039820;28;20028;-50
2021/03/26 05:49:25;;;;;;;35.55;16.10;;;;;;;5.60;53.14;100375.84;5041040;28;20025;-51
2021/03/26 05:52:32;;;;;;;33.05;15.52;;;;;;;6.14;51.89;100370.34;5032645;28;20112;-50
2021/03/26 05:55:11;;;;;;;33.88;16.83;;;;;;;6.16;52.29;100377.13;5028588;28;20160;-51
2021/03/26 05:57:55;;;;;;;41.65;16.67;;;;;;;6.95;50.75;100379.44;5020286;28;20503;-50
2021/03/26 06:00:43;;;;;;;29.40;16.55;;;;;;;8.27;48.74;100382.72;5029437;28;20045;-38
2021/03/26 06:03:46;;;;;;;34.72;17.77;;;;;;;9.25;46.06;100378.59;5043616;28;20438;-37
2021/03/26 06:06:33;;;;;;;35.20;18.45;;;;;;;10.27;42.63;100380.69;5037936;28;20053;-49
2021/03/26 06:09:05;;;;;;;45.05;21.00;;;;;;;10.47;41.78;100379.13;5038328;28;20076;-38
2021/03/26 06:11:36;;;;;;;48.47;23.92;;;;;;;11.00;41.78;100380.69;5034654;28;20448;-49
2021/03/26 06:14:39;;;;;;;45.20;23.98;;;;;;;10.87;42.06;100381.38;5035562;28;20022;-38
2021/03/26 06:17:23;;;;;;;47.65;24.58;;;;;;;10.63;41.53;100377.25;5034925;28;20025;-47
2021/03/26 06:20:11;;;;;;;55.05;28.33;;;;;;;11.53;39.63;100379.28;5040345;28;20025;-37
2021/03/26 06:23:05;;;;;;;47.45;21.98;;;;;;;11.82;40.15;100387.25;5033870;28;20112;-37
2021/03/26 06:25:54;;;;;;;50.58;22.90;;;;;;;12.29;39.56;100391.03;5041398;28;20037;-37
2021/03/26 06:28:39;;;;;;;48.10;20.73;;;;;;;12.86;37.68;100383.63;5043816;28;20163;-38
2021/03/26 06:31:18;;;;;;;55.17;25.90;;;;;;;12.86;37.37;100397.78;5045668;28;20022;-42
2021/03/26 06:33:56;;;;;;;48.15;24.88;;;;;;;13.40;36.95;100393.38;5044907;28;20029;-51
2021/03/26 06:36:59;;;;;;;47.15;20.45;;;;;;;13.93;36.67;100394.31;5041718;28;20021;-47
2021/03/26 06:39:59;;;;;;;38.53;19.92;;;;;;;14.38;35.52;100395.19;5043119;28;20317;-48
2021/03/26 06:43:02;;;;;;;45.78;20.90;;;;;;;14.64;35.53;100396.09;5023520;28;20120;-47
2021/03/26 06:45:39;;;;;;;42.38;19.52;;;;;;;14.95;34.17;100384.59;5044419;28;20037;-50
2021/03/26 06:48:22;;;;;;;37.25;18.88;;;;;;;15.23;33.94;100380.69;5045157;28;20025;-38
2021/03/26 06:51:04;;;;;;;40.85;19.73;;;;;;;14.81;34.77;100380.34;5044213;28;20029;-37
2021/03/26 06:53:45;;;;;;;46.00;21.45;;;;;;;14.43;34.61;100382.00;5043812;28;20473;-49
2021/03/26 06:56:17;;;;;;;36.72;20.58;;;;;;;15.09;34.48;100395.22;5043384;28;20033;-53
2021/03/26 06:58:56;;;;;;;41.60;19.70;;;;;;;15.64;33.75;100398.88;5040719;28;20030;-38
2021/03/26 07:01:45;;;;;;;34.40;18.60;;;;;;;15.98;32.29;100393.22;5040723;28;20419;-37
2021/03/26 07:04:26;;;;;;;40.15;18.85;;;;;;;15.38;33.46;100388.41;5048316;28;20462;-38
2021/03/26 07:07:13;;;;;;;45.33;18.65;;;;;;;16.63;32.94;100394.50;5052060;28;20466;-49
2021/03/26 07:10:08;;;;;;;39.15;21.42;;;;;;;17.63;31.52;100388.44;5034967;28;20044;-48
2021/03/26 07:12:43;;;;;;;32.10;18.80;;;;;;;18.16;30.41;100397.41;5043198;28;20041;-49
2021/03/26 07:15:23;;;;;;;27.15;14.90;;;;;;;18.51;28.74;100396.50;5051510;28;20029;-38
2021/03/26 07:18:18;;;;;;;15.48;10.30;;;;;;;18.78;27.98;100394.03;5034770;28;20111;-38
2021/03/26 07:21:11;;;;;;;22.42;11.25;;;;;;;19.08;27.63;100399.19;5050985;28;20527;-38
2021/03/26 07:24:28;;;;;;;21.02;11.40;;;;;;;19.37;27.01;100401.00;5051203;28;20024;-48
2021/03/26 07:26:55;;;;;;;35.22;21.75;;;;;;;19.24;27.93;100402.94;5012906;28;20438;-51
2021/03/26 07:29:38;;;;;;;34.63;20.98;;;;;;;18.99;28.05;100405.22;5052694;28;20143;-50
2021/03/26 07:32:17;;;;;;;21.83;13.45;;;;;;;18.74;28.71;100400.97;5051153;28;20116;-39
2021/03/26 07:34:49;;;;;;;18.23;10.88;;;;;;;18.99;27.82;100400.63;5050407;28;20309;-38
2021/03/26 07:37:23;;;;;;;18.33;9.43;;;;;;;18.65;27.37;100403.22;5051344;28;20229;-38
2021/03/26 07:40:25;;;;;;;13.80;8.35;;;;;;;18.14;27.00;100400.34;5034091;28;20025;-51
2021/03/26 07:43:12;;;;;;;18.35;10.60;;;;;;;17.16;27.47;100402.66;5051293;28;20033;-39
2021/03/26 07:45:56;;;;;;;16.15;9.98;;;;;;;17.02;27.48;100403.06;5051515;28;20036;-51
2021/03/26 07:49:03;;;;;;;12.27;7.68;;;;;;;16.33;27.33;100403.34;5050084;28;20063;-38
2021/03/26 07:51:44;;;;;;;11.57;7.85;;;;;;;16.04;28.01;100400.38;5031695;28;20133;-49
2021/03/26 07:54:32;;;;;;;12.85;7.88;;;;;;;16.38;27.93;100398.13;5033929;28;20477;-39
2021/03/26 07:57:26;;;;;;;19.65;11.77;;;;;;;16.22;27.15;100395.03;5051114;28;20063;-47
2021/03/26 08:00:29;;;;;;;16.95;11.52;;;;;;;16.36;27.24;100398.34;5042249;28;20040;-49
2021/03/26 08:03:28;;;;;;;13.80;8.27;;;;;;;16.71;27.17;100405.75;5050761;28;20041;-49
2021/03/26 08:06:23;;;;;;;13.32;8.38;;;;;;;16.90;28.24;100408.41;5049360;28;20402;-37
2021/03/26 08:09:03;;;;;;;13.80;8.60;;;;;;;15.70;28.19;100407.09;5041494;28;20044;-37
2021/03/26 08:12:03;;;;;;;20.17;9.38;;;;;;;16.69;27.88;100409.72;5050260;28;20090;-37
2021/03/26 08:14:31;;;;;;;13.63;8.80;;;;;;;17.12;26.39;100404.16;5048895;28;20046;-38
2021/03/26 08:17:15;;;;;;;15.18;8.13;;;;;;;17.22;25.66;100417.03;5051068;28;20143;-38
2021/03/26 08:19:49;;;;;;;13.48;8.00;;;;;;;17.86;25.90;100419.09;5049511;28;20052;-39
2021/03/26 08:22:22;;;;;;;17.88;9.23;;;;;;;18.11;25.53;100432.31;5050856;28;20106;-39
2021/03/26 08:25:36;;;;;;;14.65;8.52;;;;;;;18.22;26.08;100430.66;5049625;28;20387;-39
2021/03/26 08:28:32;;;;;;;11.80;8.18;;;;;;;18.62;24.90;100425.28;5036015;28;20420;-39
2021/03/26 08:31:34;;;;;;;16.45;8.73;;;;;;;18.11;25.39;100426.94;5050280;28;20033;-38
2021/03/26 08:34:37;;;;;;;17.30;11.02;;;;;;;18.54;25.63;100439.97;5050133;28;20032;-48
2021/03/26 08:37:13;;;;;;;18.48;12.68;;;;;;;19.13;24.89;100430.81;5050444;28;20029;-47
2021/03/26 08:39:47;;;;;;;15.52;9.40;;;;;;;18.55;25.92;100424.59;5049125;28;20036;-50
2021/03/26 08:42:29;;;;;;;15.15;9.45;;;;;;;18.98;26.38;100425.94;5049278;28;20121;-38
2021/03/26 08:45:07;;;;;;;19.08;11.10;;;;;;;18.86;25.71;100430.59;5049110;28;20503;-38
2021/03/26 08:47:48;;;;;;;14.63;8.65;;;;;;;18.15;26.34;100431.59;5050360;28;20120;-38
2021/03/26 08:50:41;;;;;;;15.18;9.15;;;;;;;19.14;25.40;100421.66;5048701;28;20079;-38
2021/03/26 08:53:15;;;;;;;16.35;8.75;;;;;;;19.68;25.03;100429.25;5048846;28;20472;-39
2021/03/26 08:55:51;;;;;;;23.63;13.65;;;;;;;19.81;25.20;100428.94;5050049;28;20107;-39
2021/03/26 08:58:28;;;;;;;26.30;20.02;;;;;;;20.23;24.81;100430.31;5048460;28;20039;-39
2021/03/26 09:01:25;;;;;;;18.80;11.88;;;;;;;19.41;24.87;100429.13;5048542;28;20024;-38
2021/03/26 09:04:27;;;;;;;17.80;11.75;;;;;;;18.95;25.96;100429.16;5034254;28;20048;-39
2021/03/26 09:07:26;;;;;;;14.93;8.65;;;;;;;18.32;25.89;100438.97;5048974;28;20048;-38
2021/03/26 09:10:36;;;;;;;14.20;8.52;;;;;;;18.02;26.08;100439.13;5048468;28;20040;-38
2021/03/26 09:13:19;;;;;;;19.42;9.50;;;;;;;18.97;25.79;100432.41;5035096;28;20112;-39
2021/03/26 09:15:45;;;;;;;17.02;9.27;;;;;;;18.50;25.38;100440.66;5032558;28;20036;-38
2021/03/26 09:18:35;;;;;;;16.90;10.98;;;;;;;18.89;25.45;100430.13;5049681;28;20405;-38
2021/03/26 09:21:11;;;;;;;20.90;13.47;;;;;;;17.61;26.70;100430.06;5049514;28;20028;-51
2021/03/26 09:23:40;;;;;;;14.82;9.13;;;;;;;17.53;27.55;100423.97;5048015;28;20028;-38
2021/03/26 09:26:07;;;;;;;17.10;9.00;;;;;;;17.59;26.54;100424.91;5047815;28;20143;-39
2021/03/26 09:28:41;;;;;;;14.00;8.95;;;;;;;17.67;27.13;100423.75;5049007;28;20044;-39
2021/03/26 09:31:10;;;;;;;13.18;8.68;;;;;;;17.88;26.76;100422.41;5031852;28;20040;-39
2021/03/26 09:33:36;;;;;;;;;;;;;;;17.85;27.73;100420.97;5049879;28;20029;-39
2021/03/26 09:36:02;;;;;;;13.18;8.73;;;;;;;19.09;26.09;100419.69;5047840;28;19916;-39
2021/03/26 09:38:42;;;;;;;12.85;8.23;;;;;;;19.64;24.95;100410.03;5031498;28;20036;-39
2021/03/26 09:41:20;;;;;;;12.87;8.07;;;;;;;19.65;24.09;100408.19;5015775;28;20040;-39
2021/03/26 09:43:57;;;;;;;13.32;8.32;;;;;;;19.14;25.16;100408.97;5049441;28;20071;-39
2021/03/26 09:46:25;;;;;;;12.77;8.57;;;;;;;19.28;24.92;100414.06;5049459;28;20094;-38
2021/03/26 09:49:01;;;;;;;13.50;8.40;;;;;;;19.23;25.50;100405.88;5049008;28;20477;-38
2021/03/26 09:51:45;;;;;;;13.95;8.68;;;;;;;19.25;24.04;100403.78;5048037;28;20059;-38
2021/03/26 09:54:39;;;;;;;13.57;8.68;;;;;;;18.68;25.83;100396.56;5049437;28;20029;-38
2021/03/26 09:57:23;;;;;;;18.98;8.45;;;;;;;18.16;25.59;100405.47;5048803;28;20412;-38
2021/03/26 09:59:48;;;;;;;39.45;25.92;;;;;;;18.61;24.75;100399.38;5048707;28;20032;-38
2021/03/26 10:02:52;;;;;;;18.85;10.90;;;;;;;18.59;24.59;100382.63;5052580;28;20051;-38
2021/03/26 10:05:20;;;;;;;15.55;8.30;;;;;;;19.37;24.27;100391.00;5034787;28;20049;-38
2021/03/26 10:07:52;;;;;;;14.13;7.40;;;;;;;19.36;24.81;100389.34;5035393;28;20416;-38
2021/03/26 10:13:04;;;;;;;11.88;7.90;;;;;;;19.99;23.83;100383.81;5034588;28;20028;-38
2021/03/26 10:15:45;;;;;;;13.23;7.20;;;;;;;20.60;23.66;100389.16;5036513;28;20037;-38
2021/03/26 10:18:16;;;;;;;10.95;6.57;;;;;;;19.88;23.03;100389.09;5052842;28;20024;-38
2021/03/26 10:20:49;;;;;;;12.77;6.30;;;;;;;19.02;23.52;100381.28;5034927;28;20025;-38
2021/03/26 10:23:16;;;;;;;13.15;8.80;;;;;;;19.30;23.27;100377.66;5020509;28;20028;-50
2021/03/26 10:25:49;;;;;;;15.48;10.88;;;;;;;19.95;23.18;100388.09;5031590;28;20417;-47
2021/03/26 10:28:44;;;;;;;10.30;6.78;;;;;;;20.81;21.74;100376.66;5014721;28;20025;-50
2021/03/26 10:31:12;;;;;;;8.27;5.50;;;;;;;20.55;21.32;100373.66;5012388;28;20183;-39
2021/03/26 10:33:59;;;;;;;8.52;5.97;;;;;;;20.28;21.79;100379.06;5014604;28;20059;-39
2021/03/26 10:36:37;;;;;;;10.98;6.85;;;;;;;20.65;21.62;100370.28;5031598;28;20032;-39
2021/03/26 10:39:22;;;;;;;17.08;13.50;;;;;;;20.78;21.49;100375.28;5032421;28;20029;-39
2021/03/26 10:41:50;;;;;;;11.52;6.20;;;;;;;20.60;20.73;100373.75;5040726;28;20032;-38
2021/03/26 10:44:32;;;;;;;9.05;6.15;;;;;;;21.12;20.49;100371.53;5072359;28;20020;-38
2021/03/26 10:47:16;;;;;;;8.70;5.50;;;;;;;21.51;20.20;100365.88;5055548;28;20063;-38
2021/03/26 10:49:45;;;;;;;6.25;4.65;;;;;;;22.24;19.64;100368.69;5070733;28;20502;-51
2021/03/26 10:52:21;;;;;;;7.05;5.25;;;;;;;22.52;19.77;100362.00;5054691;28;20020;-48
2021/03/26 10:55:00;;;;;;;9.75;6.78;;;;;;;22.12;18.74;100360.75;5054822;28;20108;-50
2021/03/26 10:57:32;;;;;;;15.60;9.43;;;;;;;21.52;19.56;100360.22;5071864;28;20495;-38
2021/03/26 11:00:09;;;;;;;11.32;7.38;;;;;;;20.74;20.07;100362.53;5070558;28;20039;-37
2021/03/26 11:02:57;;;;;;;9.23;6.10;;;;;;;20.60;20.01;100365.66;5071676;28;20445;-39
2021/03/26 11:05:43;;;;;;;6.18;4.60;;;;;;;21.31;18.71;100350.28;5066102;28;20041;-51
2021/03/26 11:08:14;;;;;;;11.90;7.43;;;;;;;21.37;19.15;100349.25;5045071;28;20093;-49
2021/03/26 11:10:42;;;;;;;10.57;4.30;;;;;;;21.09;18.74;100351.19;5052680;28;20048;-49
2021/03/26 11:13:26;;;;;;;7.07;4.23;;;;;;;21.13;19.17;100351.50;5050862;28;20051;-50
2021/03/26 11:15:58;;;;;;;9.27;4.30;;;;;;;21.00;19.04;100342.75;5052601;28;20043;-48
2021/03/26 11:18:39;;;;;;;6.65;4.35;;;;;;;20.06;19.55;100330.41;5035168;28;20025;-39
2021/03/26 11:21:10;;;;;;;11.18;5.43;;;;;;;19.90;20.56;100345.63;5031548;28;20460;-38
2021/03/26 11:23:38;;;;;;;8.95;4.57;;;;;;;19.54;20.90;100343.22;5029715;28;20025;-39
2021/03/26 11:26:03;;;;;;;14.57;11.00;;;;;;;19.46;19.98;100334.75;5015385;28;20111;-39
2021/03/26 11:28:38;;;;;;;24.85;18.10;;;;;;;19.34;20.97;100330.25;5032690;28;20021;-38
2021/03/26 11:31:11;;;;;;;24.70;16.10;;;;;;;20.11;21.27;100330.50;5031241;28;20558;-41
2021/03/26 11:33:44;;;;;;;8.80;5.80;;;;;;;20.15;20.71;100328.91;5048031;28;20029;-38
2021/03/26 11:36:32;;;;;;;7.05;4.80;;;;;;;18.70;21.75;100322.44;5031532;28;20397;-39
2021/03/26 11:39:00;;;;;;;8.88;5.07;;;;;;;17.81;21.38;100325.56;5031715;28;20434;-39
2021/03/26 11:41:26;;;;;;;8.65;5.18;;;;;;;17.52;22.40;100314.72;5049536;28;20032;-39
2021/03/26 11:43:51;;;;;;;8.52;5.30;;;;;;;16.90;23.30;100317.84;5034380;28;20033;-50
2021/03/26 11:46:21;;;;;;;8.68;5.20;;;;;;;16.75;23.75;100307.53;5027971;28;20067;-38
2021/03/26 11:49:02;;;;;;;8.18;4.88;;;;;;;16.70;24.57;100314.63;5039354;28;20020;-48
2021/03/26 11:51:30;;;;;;;10.18;6.32;;;;;;;16.96;23.21;100305.34;5026856;28;20089;-38
2021/03/26 11:54:23;;;;;;;8.13;5.97;;;;;;;17.05;24.08;100309.34;5043205;28;20423;-38
2021/03/26 11:57:20;;;;;;;7.30;4.60;;;;;;;17.17;22.17;100293.19;5042615;28;20025;-48
2021/03/26 11:59:54;;;;;;;8.18;4.80;;;;;;;16.42;23.00;100297.25;5019423;28;20037;-52
2021/03/26 12:02:44;;;;;;;14.90;8.52;;;;;;;16.28;23.86;100290.41;5042145;28;20176;-49
2021/03/26 12:05:29;;;;;;;11.68;8.13;;;;;;;16.77;23.08;100285.78;5042688;28;20465;-47
2021/03/26 12:08:01;;;;;;;16.77;12.00;;;;;;;18.01;22.14;100286.69;5030619;28;20416;-39
2021/03/26 12:10:32;;;;;;;9.18;5.68;;;;;;;17.25;23.25;100294.72;5036484;28;20124;-51